sensor_id;sensor_type;location;lat;lon;timestamp;P1;durP1;ratioP1;P2;durP2;ratioP2
11500;SDS011;5807;51.606;7.624;2023-01-08T00:01:13;3.03;;;2.73;;
11500;SDS011;5807;51.606;7.624;2023-01-08T00:03:41;3.00;;;2.80;;
11500;SDS011;5807;51.606;7.624;2023-01-08T00:06:09;3.00;;;2.53;;
11500;SDS011;5807;51.606;7.624;2023-01-08T00:08:37;2.67;;;2.47;;
11500;SDS011;5807;51.606;7.624;2023-01-08T00:11:04;2.90;;;2.43;;
11500;SDS011;5807;51.606;7.624;2023-01-08T00:13:34;3.00;;;2.40;;
11500;SDS011;5807;51.606;7.624;2023-01-08T00:16:03;2.17;;;2.03;;
11500;SDS011;5807;51.606;7.624;2023-01-08T00:18:30;2.30;;;2.20;;
11500;SDS011;5807;51.606;7.624;2023-01-08T00:20:57;2.83;;;2.70;;
11500;SDS011;5807;51.606;7.624;2023-01-08T00:23:25;2.60;;;2.40;;
11500;SDS011;5807;51.606;7.624;2023-01-08T00:25:52;2.03;;;1.93;;
11500;SDS011;5807;51.606;7.624;2023-01-08T00:28:19;2.50;;;2.30;;
11500;SDS011;5807;51.606;7.624;2023-01-08T00:30:46;2.13;;;2.03;;
11500;SDS011;5807;51.606;7.624;2023-01-08T00:33:15;2.60;;;2.07;;
11500;SDS011;5807;51.606;7.624;2023-01-08T00:35:42;2.87;;;2.43;;
11500;SDS011;5807;51.606;7.624;2023-01-08T00:38:09;2.00;;;1.90;;
11500;SDS011;5807;51.606;7.624;2023-01-08T00:40:37;2.53;;;2.20;;
11500;SDS011;5807;51.606;7.624;2023-01-08T00:43:04;2.27;;;2.00;;
11500;SDS011;5807;51.606;7.624;2023-01-08T00:45:31;1.83;;;1.73;;
11500;SDS011;5807;51.606;7.624;2023-01-08T00:47:58;1.97;;;1.87;;
11500;SDS011;5807;51.606;7.624;2023-01-08T00:50:27;2.10;;;2.00;;
11500;SDS011;5807;51.606;7.624;2023-01-08T00:52:54;1.77;;;1.70;;
11500;SDS011;5807;51.606;7.624;2023-01-08T00:55:21;1.90;;;1.80;;
11500;SDS011;5807;51.606;7.624;2023-01-08T00:57:47;1.90;;;1.80;;
11500;SDS011;5807;51.606;7.624;2023-01-08T01:00:15;1.97;;;1.80;;
11500;SDS011;5807;51.606;7.624;2023-01-08T01:02:42;1.50;;;1.50;;
11500;SDS011;5807;51.606;7.624;2023-01-08T01:05:09;1.50;;;1.50;;
11500;SDS011;5807;51.606;7.624;2023-01-08T01:07:40;1.83;;;1.67;;
11500;SDS011;5807;51.606;7.624;2023-01-08T01:10:08;1.63;;;1.53;;
11500;SDS011;5807;51.606;7.624;2023-01-08T01:12:36;2.10;;;2.00;;
11500;SDS011;5807;51.606;7.624;2023-01-08T01:15:03;1.93;;;1.77;;
11500;SDS011;5807;51.606;7.624;2023-01-08T01:17:31;2.20;;;2.00;;
11500;SDS011;5807;51.606;7.624;2023-01-08T01:19:58;1.67;;;1.67;;
11500;SDS011;5807;51.606;7.624;2023-01-08T01:22:25;1.80;;;1.70;;
11500;SDS011;5807;51.606;7.624;2023-01-08T01:24:53;2.00;;;1.90;;
11500;SDS011;5807;51.606;7.624;2023-01-08T01:27:20;2.10;;;1.90;;
11500;SDS011;5807;51.606;7.624;2023-01-08T01:29:47;1.63;;;1.53;;
11500;SDS011;5807;51.606;7.624;2023-01-08T01:32:13;1.67;;;1.57;;
11500;SDS011;5807;51.606;7.624;2023-01-08T01:34:41;1.87;;;1.77;;
11500;SDS011;5807;51.606;7.624;2023-01-08T01:37:07;1.80;;;1.70;;
11500;SDS011;5807;51.606;7.624;2023-01-08T01:39:37;1.57;;;1.57;;
11500;SDS011;5807;51.606;7.624;2023-01-08T01:42:05;2.23;;;2.03;;
11500;SDS011;5807;51.606;7.624;2023-01-08T01:44:52;1.80;;;1.73;;
11500;SDS011;5807;51.606;7.624;2023-01-08T01:47:19;2.00;;;1.90;;
11500;SDS011;5807;51.606;7.624;2023-01-08T01:49:52;2.13;;;1.80;;
11500;SDS011;5807;51.606;7.624;2023-01-08T01:52:22;2.00;;;1.80;;
11500;SDS011;5807;51.606;7.624;2023-01-08T01:54:52;1.80;;;1.70;;
11500;SDS011;5807;51.606;7.624;2023-01-08T01:57:21;1.93;;;1.77;;
11500;SDS011;5807;51.606;7.624;2023-01-08T01:59:50;2.07;;;1.70;;
11500;SDS011;5807;51.606;7.624;2023-01-08T02:02:19;1.67;;;1.57;;
11500;SDS011;5807;51.606;7.624;2023-01-08T02:04:46;1.73;;;1.63;;
11500;SDS011;5807;51.606;7.624;2023-01-08T02:07:14;1.97;;;1.87;;
11500;SDS011;5807;51.606;7.624;2023-01-08T02:09:47;1.87;;;1.70;;
11500;SDS011;5807;51.606;7.624;2023-01-08T02:12:18;2.00;;;1.80;;
11500;SDS011;5807;51.606;7.624;2023-01-08T02:14:58;1.87;;;1.77;;
11500;SDS011;5807;51.606;7.624;2023-01-08T02:17:32;1.60;;;1.60;;
11500;SDS011;5807;51.606;7.624;2023-01-08T02:20:06;1.63;;;1.53;;
11500;SDS011;5807;51.606;7.624;2023-01-08T02:22:43;2.47;;;1.70;;
11500;SDS011;5807;51.606;7.624;2023-01-08T02:25:17;1.90;;;1.80;;
11500;SDS011;5807;51.606;7.624;2023-01-08T02:27:55;1.70;;;1.60;;
11500;SDS011;5807;51.606;7.624;2023-01-08T02:30:25;1.60;;;1.60;;
11500;SDS011;5807;51.606;7.624;2023-01-08T02:32:52;2.00;;;1.90;;
11500;SDS011;5807;51.606;7.624;2023-01-08T02:35:19;2.20;;;1.63;;
11500;SDS011;5807;51.606;7.624;2023-01-08T02:37:46;2.93;;;2.07;;
11500;SDS011;5807;51.606;7.624;2023-01-08T02:40:14;2.03;;;1.93;;
11500;SDS011;5807;51.606;7.624;2023-01-08T02:42:50;1.97;;;1.40;;
11500;SDS011;5807;51.606;7.624;2023-01-08T02:45:25;1.53;;;1.50;;
11500;SDS011;5807;51.606;7.624;2023-01-08T02:48:00;2.37;;;1.80;;
11500;SDS011;5807;51.606;7.624;2023-01-08T02:50:33;2.00;;;1.90;;
11500;SDS011;5807;51.606;7.624;2023-01-08T02:53:03;2.10;;;1.77;;
11500;SDS011;5807;51.606;7.624;2023-01-08T02:55:36;2.60;;;2.20;;
11500;SDS011;5807;51.606;7.624;2023-01-08T02:58:05;2.00;;;1.90;;
11500;SDS011;5807;51.606;7.624;2023-01-08T03:00:34;2.40;;;2.07;;
11500;SDS011;5807;51.606;7.624;2023-01-08T03:03:03;2.40;;;2.20;;
11500;SDS011;5807;51.606;7.624;2023-01-08T03:05:34;1.80;;;1.70;;
11500;SDS011;5807;51.606;7.624;2023-01-08T03:08:05;2.40;;;2.20;;
11500;SDS011;5807;51.606;7.624;2023-01-08T03:10:32;2.33;;;1.77;;
11500;SDS011;5807;51.606;7.624;2023-01-08T03:13:02;2.20;;;2.10;;
11500;SDS011;5807;51.606;7.624;2023-01-08T03:15:35;1.87;;;1.77;;
11500;SDS011;5807;51.606;7.624;2023-01-08T03:18:08;2.10;;;1.90;;
11500;SDS011;5807;51.606;7.624;2023-01-08T03:20:38;2.20;;;2.00;;
11500;SDS011;5807;51.606;7.624;2023-01-08T03:23:07;2.77;;;2.40;;
11500;SDS011;5807;51.606;7.624;2023-01-08T03:25:36;2.10;;;2.00;;
11500;SDS011;5807;51.606;7.624;2023-01-08T03:28:07;2.27;;;2.07;;
11500;SDS011;5807;51.606;7.624;2023-01-08T03:30:40;2.37;;;2.27;;
11500;SDS011;5807;51.606;7.624;2023-01-08T03:33:09;2.53;;;2.33;;
11500;SDS011;5807;51.606;7.624;2023-01-08T03:35:37;3.63;;;2.00;;
11500;SDS011;5807;51.606;7.624;2023-01-08T03:38:07;1.90;;;1.80;;
11500;SDS011;5807;51.606;7.624;2023-01-08T03:40:40;2.20;;;1.93;;
11500;SDS011;5807;51.606;7.624;2023-01-08T03:43:10;2.73;;;2.10;;
11500;SDS011;5807;51.606;7.624;2023-01-08T03:45:37;2.03;;;1.90;;
11500;SDS011;5807;51.606;7.624;2023-01-08T03:48:09;2.10;;;2.00;;
11500;SDS011;5807;51.606;7.624;2023-01-08T03:50:36;3.20;;;1.90;;
11500;SDS011;5807;51.606;7.624;2023-01-08T03:53:06;2.50;;;2.30;;
11500;SDS011;5807;51.606;7.624;2023-01-08T03:55:33;2.63;;;2.43;;
11500;SDS011;5807;51.606;7.624;2023-01-08T03:58:00;2.43;;;2.00;;
11500;SDS011;5807;51.606;7.624;2023-01-08T04:00:26;2.10;;;2.00;;
11500;SDS011;5807;51.606;7.624;2023-01-08T04:02:54;1.97;;;1.90;;
11500;SDS011;5807;51.606;7.624;2023-01-08T04:05:21;1.70;;;1.60;;
11500;SDS011;5807;51.606;7.624;2023-01-08T04:07:48;1.83;;;1.73;;
11500;SDS011;5807;51.606;7.624;2023-01-08T04:10:15;2.37;;;2.17;;
11500;SDS011;5807;51.606;7.624;2023-01-08T04:12:42;2.00;;;1.80;;
11500;SDS011;5807;51.606;7.624;2023-01-08T04:15:09;2.10;;;2.00;;
11500;SDS011;5807;51.606;7.624;2023-01-08T04:17:36;2.07;;;1.97;;
11500;SDS011;5807;51.606;7.624;2023-01-08T04:20:05;2.10;;;2.00;;
11500;SDS011;5807;51.606;7.624;2023-01-08T04:22:33;2.07;;;1.97;;
11500;SDS011;5807;51.606;7.624;2023-01-08T04:25:00;2.53;;;2.00;;
11500;SDS011;5807;51.606;7.624;2023-01-08T04:27:26;2.10;;;2.00;;
11500;SDS011;5807;51.606;7.624;2023-01-08T04:29:53;2.47;;;1.97;;
11500;SDS011;5807;51.606;7.624;2023-01-08T04:32:20;1.53;;;1.50;;
11500;SDS011;5807;51.606;7.624;2023-01-08T04:34:47;1.90;;;1.80;;
11500;SDS011;5807;51.606;7.624;2023-01-08T04:37:15;1.80;;;1.70;;
11500;SDS011;5807;51.606;7.624;2023-01-08T04:39:41;2.00;;;1.90;;
11500;SDS011;5807;51.606;7.624;2023-01-08T04:42:08;1.70;;;1.60;;
11500;SDS011;5807;51.606;7.624;2023-01-08T04:44:35;1.80;;;1.70;;
11500;SDS011;5807;51.606;7.624;2023-01-08T04:47:02;1.73;;;1.63;;
11500;SDS011;5807;51.606;7.624;2023-01-08T04:49:28;1.50;;;1.50;;
11500;SDS011;5807;51.606;7.624;2023-01-08T04:51:55;1.40;;;1.40;;
11500;SDS011;5807;51.606;7.624;2023-01-08T04:54:23;1.77;;;1.67;;
11500;SDS011;5807;51.606;7.624;2023-01-08T04:56:50;1.60;;;1.50;;
11500;SDS011;5807;51.606;7.624;2023-01-08T04:59:20;1.83;;;1.73;;
11500;SDS011;5807;51.606;7.624;2023-01-08T05:01:47;1.90;;;1.77;;
11500;SDS011;5807;51.606;7.624;2023-01-08T05:04:14;2.10;;;2.00;;
11500;SDS011;5807;51.606;7.624;2023-01-08T05:06:41;1.67;;;1.60;;
11500;SDS011;5807;51.606;7.624;2023-01-08T05:09:07;2.10;;;2.00;;
11500;SDS011;5807;51.606;7.624;2023-01-08T05:11:37;1.90;;;1.80;;
11500;SDS011;5807;51.606;7.624;2023-01-08T05:14:03;1.73;;;1.63;;
11500;SDS011;5807;51.606;7.624;2023-01-08T05:16:30;2.07;;;1.93;;
11500;SDS011;5807;51.606;7.624;2023-01-08T05:18:57;1.87;;;1.77;;
11500;SDS011;5807;51.606;7.624;2023-01-08T05:21:24;2.60;;;2.00;;
11500;SDS011;5807;51.606;7.624;2023-01-08T05:23:50;1.90;;;1.80;;
11500;SDS011;5807;51.606;7.624;2023-01-08T05:26:17;1.90;;;1.80;;
11500;SDS011;5807;51.606;7.624;2023-01-08T05:28:46;1.63;;;1.53;;
11500;SDS011;5807;51.606;7.624;2023-01-08T05:31:13;2.07;;;1.90;;
11500;SDS011;5807;51.606;7.624;2023-01-08T05:33:40;2.20;;;1.70;;
11500;SDS011;5807;51.606;7.624;2023-01-08T05:36:07;1.67;;;1.60;;
11500;SDS011;5807;51.606;7.624;2023-01-08T05:38:36;2.03;;;1.93;;
11500;SDS011;5807;51.606;7.624;2023-01-08T05:41:04;1.60;;;1.60;;
11500;SDS011;5807;51.606;7.624;2023-01-08T05:43:31;1.60;;;1.50;;
11500;SDS011;5807;51.606;7.624;2023-01-08T05:46:00;1.57;;;1.57;;
11500;SDS011;5807;51.606;7.624;2023-01-08T05:48:28;1.70;;;1.60;;
11500;SDS011;5807;51.606;7.624;2023-01-08T05:50:56;1.93;;;1.83;;
11500;SDS011;5807;51.606;7.624;2023-01-08T05:53:23;1.33;;;1.33;;
11500;SDS011;5807;51.606;7.624;2023-01-08T05:55:50;1.33;;;1.33;;
11500;SDS011;5807;51.606;7.624;2023-01-08T05:58:17;1.40;;;1.40;;
11500;SDS011;5807;51.606;7.624;2023-01-08T06:00:45;1.70;;;1.60;;
11500;SDS011;5807;51.606;7.624;2023-01-08T06:03:13;1.30;;;1.30;;
11500;SDS011;5807;51.606;7.624;2023-01-08T06:05:40;1.50;;;1.50;;
11500;SDS011;5807;51.606;7.624;2023-01-08T06:08:07;1.60;;;1.60;;
11500;SDS011;5807;51.606;7.624;2023-01-08T06:10:36;1.60;;;1.50;;
11500;SDS011;5807;51.606;7.624;2023-01-08T06:13:05;1.20;;;1.17;;
11500;SDS011;5807;51.606;7.624;2023-01-08T06:15:32;1.33;;;1.30;;
11500;SDS011;5807;51.606;7.624;2023-01-08T06:18:00;1.30;;;1.30;;
11500;SDS011;5807;51.606;7.624;2023-01-08T06:20:29;1.50;;;1.40;;
11500;SDS011;5807;51.606;7.624;2023-01-08T06:22:56;1.30;;;1.20;;
11500;SDS011;5807;51.606;7.624;2023-01-08T06:25:23;1.23;;;1.23;;
11500;SDS011;5807;51.606;7.624;2023-01-08T06:27:50;1.23;;;1.23;;
11500;SDS011;5807;51.606;7.624;2023-01-08T06:30:17;1.40;;;1.40;;
11500;SDS011;5807;51.606;7.624;2023-01-08T06:32:44;1.27;;;1.23;;
11500;SDS011;5807;51.606;7.624;2023-01-08T06:35:10;1.53;;;1.30;;
11500;SDS011;5807;51.606;7.624;2023-01-08T06:37:39;0.87;;;0.87;;
11500;SDS011;5807;51.606;7.624;2023-01-08T06:40:06;2.00;;;1.20;;
11500;SDS011;5807;51.606;7.624;2023-01-08T06:42:33;1.33;;;1.33;;
11500;SDS011;5807;51.606;7.624;2023-01-08T06:45:00;1.30;;;1.23;;
11500;SDS011;5807;51.606;7.624;2023-01-08T06:47:27;1.17;;;1.10;;
11500;SDS011;5807;51.606;7.624;2023-01-08T06:49:54;1.20;;;1.20;;
11500;SDS011;5807;51.606;7.624;2023-01-08T06:52:20;1.30;;;1.30;;
11500;SDS011;5807;51.606;7.624;2023-01-08T06:54:49;1.07;;;1.07;;
11500;SDS011;5807;51.606;7.624;2023-01-08T06:57:15;1.53;;;1.40;;
11500;SDS011;5807;51.606;7.624;2023-01-08T06:59:42;1.10;;;1.10;;
11500;SDS011;5807;51.606;7.624;2023-01-08T07:02:09;1.10;;;1.10;;
11500;SDS011;5807;51.606;7.624;2023-01-08T07:04:39;1.10;;;1.10;;
11500;SDS011;5807;51.606;7.624;2023-01-08T07:07:05;2.10;;;1.40;;
11500;SDS011;5807;51.606;7.624;2023-01-08T07:09:32;2.90;;;1.50;;
11500;SDS011;5807;51.606;7.624;2023-01-08T07:12:00;1.50;;;1.40;;
11500;SDS011;5807;51.606;7.624;2023-01-08T07:14:27;1.20;;;1.13;;
11500;SDS011;5807;51.606;7.624;2023-01-08T07:16:54;1.17;;;1.17;;
11500;SDS011;5807;51.606;7.624;2023-01-08T07:19:21;1.30;;;1.30;;
11500;SDS011;5807;51.606;7.624;2023-01-08T07:21:47;1.47;;;1.30;;
11500;SDS011;5807;51.606;7.624;2023-01-08T07:24:14;1.40;;;1.30;;
11500;SDS011;5807;51.606;7.624;2023-01-08T07:26:41;1.17;;;1.17;;
11500;SDS011;5807;51.606;7.624;2023-01-08T07:29:09;1.20;;;1.20;;
11500;SDS011;5807;51.606;7.624;2023-01-08T07:31:36;1.00;;;1.00;;
11500;SDS011;5807;51.606;7.624;2023-01-08T07:34:03;1.23;;;1.20;;
11500;SDS011;5807;51.606;7.624;2023-01-08T07:36:30;1.20;;;1.20;;
11500;SDS011;5807;51.606;7.624;2023-01-08T07:38:57;1.23;;;1.23;;
11500;SDS011;5807;51.606;7.624;2023-01-08T07:41:23;1.20;;;1.20;;
11500;SDS011;5807;51.606;7.624;2023-01-08T07:43:51;1.00;;;1.00;;
11500;SDS011;5807;51.606;7.624;2023-01-08T07:46:19;1.30;;;1.30;;
11500;SDS011;5807;51.606;7.624;2023-01-08T07:48:46;1.23;;;1.23;;
11500;SDS011;5807;51.606;7.624;2023-01-08T07:51:13;1.10;;;1.10;;
11500;SDS011;5807;51.606;7.624;2023-01-08T07:53:40;2.07;;;1.20;;
11500;SDS011;5807;51.606;7.624;2023-01-08T07:56:08;1.20;;;1.20;;
11500;SDS011;5807;51.606;7.624;2023-01-08T07:58:35;1.40;;;1.30;;
11500;SDS011;5807;51.606;7.624;2023-01-08T08:01:03;0.90;;;0.90;;
11500;SDS011;5807;51.606;7.624;2023-01-08T08:03:34;1.27;;;1.23;;
11500;SDS011;5807;51.606;7.624;2023-01-08T08:06:01;1.00;;;1.00;;
11500;SDS011;5807;51.606;7.624;2023-01-08T08:08:28;1.00;;;1.00;;
11500;SDS011;5807;51.606;7.624;2023-01-08T08:10:55;1.33;;;0.93;;
11500;SDS011;5807;51.606;7.624;2023-01-08T08:13:21;1.23;;;1.23;;
11500;SDS011;5807;51.606;7.624;2023-01-08T08:15:48;1.07;;;1.07;;
11500;SDS011;5807;51.606;7.624;2023-01-08T08:18:15;1.13;;;1.13;;
11500;SDS011;5807;51.606;7.624;2023-01-08T08:20:43;1.50;;;1.40;;
11500;SDS011;5807;51.606;7.624;2023-01-08T08:23:12;1.10;;;1.10;;
11500;SDS011;5807;51.606;7.624;2023-01-08T08:25:40;1.10;;;1.10;;
11500;SDS011;5807;51.606;7.624;2023-01-08T08:28:08;1.20;;;1.10;;
11500;SDS011;5807;51.606;7.624;2023-01-08T08:30:36;1.43;;;1.00;;
11500;SDS011;5807;51.606;7.624;2023-01-08T08:33:04;1.20;;;1.20;;
11500;SDS011;5807;51.606;7.624;2023-01-08T08:35:32;1.00;;;1.00;;
11500;SDS011;5807;51.606;7.624;2023-01-08T08:38:00;1.20;;;1.10;;
11500;SDS011;5807;51.606;7.624;2023-01-08T08:40:28;1.60;;;1.00;;
11500;SDS011;5807;51.606;7.624;2023-01-08T08:42:55;1.20;;;1.10;;
11500;SDS011;5807;51.606;7.624;2023-01-08T08:45:22;1.10;;;1.10;;
11500;SDS011;5807;51.606;7.624;2023-01-08T08:47:49;0.83;;;0.73;;
11500;SDS011;5807;51.606;7.624;2023-01-08T08:50:16;1.00;;;1.00;;
11500;SDS011;5807;51.606;7.624;2023-01-08T08:52:43;1.00;;;1.00;;
11500;SDS011;5807;51.606;7.624;2023-01-08T08:55:11;2.40;;;0.90;;
11500;SDS011;5807;51.606;7.624;2023-01-08T08:57:40;1.03;;;1.03;;
11500;SDS011;5807;51.606;7.624;2023-01-08T09:00:08;1.93;;;1.00;;
11500;SDS011;5807;51.606;7.624;2023-01-08T09:02:36;3.07;;;1.10;;
11500;SDS011;5807;51.606;7.624;2023-01-08T09:05:03;2.83;;;1.30;;
11500;SDS011;5807;51.606;7.624;2023-01-08T09:07:30;1.97;;;1.00;;
11500;SDS011;5807;51.606;7.624;2023-01-08T09:09:57;1.00;;;0.90;;
11500;SDS011;5807;51.606;7.624;2023-01-08T09:12:25;1.30;;;1.20;;
11500;SDS011;5807;51.606;7.624;2023-01-08T09:14:51;2.87;;;1.30;;
11500;SDS011;5807;51.606;7.624;2023-01-08T09:17:18;2.30;;;1.50;;
11500;SDS011;5807;51.606;7.624;2023-01-08T09:19:46;1.07;;;1.03;;
11500;SDS011;5807;51.606;7.624;2023-01-08T09:22:13;1.10;;;1.10;;
11500;SDS011;5807;51.606;7.624;2023-01-08T09:24:39;1.47;;;1.33;;
11500;SDS011;5807;51.606;7.624;2023-01-08T09:27:06;2.00;;;1.40;;
11500;SDS011;5807;51.606;7.624;2023-01-08T09:29:34;5.13;;;1.90;;
11500;SDS011;5807;51.606;7.624;2023-01-08T09:32:01;5.30;;;1.57;;
11500;SDS011;5807;51.606;7.624;2023-01-08T09:34:31;3.60;;;1.73;;
11500;SDS011;5807;51.606;7.624;2023-01-08T09:36:57;2.50;;;1.50;;
11500;SDS011;5807;51.606;7.624;2023-01-08T09:39:24;4.10;;;1.93;;
11500;SDS011;5807;51.606;7.624;2023-01-08T09:41:51;2.07;;;1.50;;
11500;SDS011;5807;51.606;7.624;2023-01-08T09:44:21;2.93;;;1.47;;
11500;SDS011;5807;51.606;7.624;2023-01-08T09:46:52;9.03;;;2.03;;
11500;SDS011;5807;51.606;7.624;2023-01-08T09:49:21;6.30;;;1.77;;
11500;SDS011;5807;51.606;7.624;2023-01-08T09:51:53;3.33;;;1.50;;
11500;SDS011;5807;51.606;7.624;2023-01-08T09:54:20;4.53;;;1.90;;
11500;SDS011;5807;51.606;7.624;2023-01-08T09:56:51;7.00;;;2.07;;
11500;SDS011;5807;51.606;7.624;2023-01-08T09:59:18;7.40;;;2.03;;
11500;SDS011;5807;51.606;7.624;2023-01-08T10:01:45;6.17;;;1.80;;
11500;SDS011;5807;51.606;7.624;2023-01-08T10:04:15;3.57;;;1.67;;
11500;SDS011;5807;51.606;7.624;2023-01-08T10:06:45;4.33;;;1.80;;
11500;SDS011;5807;51.606;7.624;2023-01-08T10:09:16;4.63;;;1.60;;
11500;SDS011;5807;51.606;7.624;2023-01-08T10:11:46;4.63;;;1.87;;
11500;SDS011;5807;51.606;7.624;2023-01-08T10:14:18;4.77;;;1.83;;
11500;SDS011;5807;51.606;7.624;2023-01-08T10:16:48;4.77;;;1.93;;
11500;SDS011;5807;51.606;7.624;2023-01-08T10:19:20;3.87;;;2.37;;
11500;SDS011;5807;51.606;7.624;2023-01-08T10:21:48;2.83;;;1.37;;
11500;SDS011;5807;51.606;7.624;2023-01-08T10:24:15;4.40;;;1.87;;
11500;SDS011;5807;51.606;7.624;2023-01-08T10:26:43;3.90;;;1.83;;
11500;SDS011;5807;51.606;7.624;2023-01-08T10:29:12;4.00;;;1.53;;
11500;SDS011;5807;51.606;7.624;2023-01-08T10:31:47;5.40;;;1.73;;
11500;SDS011;5807;51.606;7.624;2023-01-08T10:34:27;3.40;;;1.80;;
11500;SDS011;5807;51.606;7.624;2023-01-08T10:36:57;3.07;;;2.43;;
11500;SDS011;5807;51.606;7.624;2023-01-08T10:39:25;4.30;;;2.00;;
11500;SDS011;5807;51.606;7.624;2023-01-08T10:41:54;2.97;;;1.67;;
11500;SDS011;5807;51.606;7.624;2023-01-08T10:44:22;3.47;;;1.97;;
11500;SDS011;5807;51.606;7.624;2023-01-08T10:46:51;5.70;;;1.57;;
11500;SDS011;5807;51.606;7.624;2023-01-08T10:49:20;5.37;;;1.93;;
11500;SDS011;5807;51.606;7.624;2023-01-08T10:51:51;1.97;;;1.80;;
11500;SDS011;5807;51.606;7.624;2023-01-08T10:54:24;4.80;;;1.50;;
11500;SDS011;5807;51.606;7.624;2023-01-08T10:56:54;2.53;;;1.40;;
11500;SDS011;5807;51.606;7.624;2023-01-08T10:59:22;3.57;;;1.53;;
11500;SDS011;5807;51.606;7.624;2023-01-08T11:01:50;5.13;;;2.03;;
11500;SDS011;5807;51.606;7.624;2023-01-08T11:04:19;3.03;;;1.50;;
11500;SDS011;5807;51.606;7.624;2023-01-08T11:06:47;4.77;;;1.13;;
11500;SDS011;5807;51.606;7.624;2023-01-08T11:09:17;3.77;;;1.40;;
11500;SDS011;5807;51.606;7.624;2023-01-08T11:11:45;3.77;;;1.47;;
11500;SDS011;5807;51.606;7.624;2023-01-08T11:14:14;3.53;;;1.47;;
11500;SDS011;5807;51.606;7.624;2023-01-08T11:16:42;3.67;;;1.30;;
11500;SDS011;5807;51.606;7.624;2023-01-08T11:19:14;1.57;;;1.47;;
11500;SDS011;5807;51.606;7.624;2023-01-08T11:21:42;1.47;;;1.20;;
11500;SDS011;5807;51.606;7.624;2023-01-08T11:24:21;1.20;;;1.10;;
11500;SDS011;5807;51.606;7.624;2023-01-08T11:26:50;1.20;;;1.10;;
11500;SDS011;5807;51.606;7.624;2023-01-08T11:29:20;1.60;;;1.40;;
11500;SDS011;5807;51.606;7.624;2023-01-08T11:31:49;2.63;;;1.40;;
11500;SDS011;5807;51.606;7.624;2023-01-08T11:34:19;2.10;;;1.13;;
11500;SDS011;5807;51.606;7.624;2023-01-08T11:36:48;2.20;;;1.20;;
11500;SDS011;5807;51.606;7.624;2023-01-08T11:39:15;1.10;;;1.10;;
11500;SDS011;5807;51.606;7.624;2023-01-08T11:41:50;2.63;;;1.20;;
11500;SDS011;5807;51.606;7.624;2023-01-08T11:44:22;1.90;;;1.30;;
11500;SDS011;5807;51.606;7.624;2023-01-08T11:46:53;1.30;;;1.20;;
11500;SDS011;5807;51.606;7.624;2023-01-08T11:49:28;1.80;;;1.27;;
11500;SDS011;5807;51.606;7.624;2023-01-08T11:52:02;1.53;;;1.33;;
11500;SDS011;5807;51.606;7.624;2023-01-08T11:54:37;1.17;;;1.13;;
11500;SDS011;5807;51.606;7.624;2023-01-08T11:57:12;2.33;;;1.37;;
11500;SDS011;5807;51.606;7.624;2023-01-08T11:59:50;1.23;;;1.20;;
11500;SDS011;5807;51.606;7.624;2023-01-08T12:02:21;2.60;;;1.30;;
11500;SDS011;5807;51.606;7.624;2023-01-08T12:04:57;1.57;;;1.27;;
11500;SDS011;5807;51.606;7.624;2023-01-08T12:07:28;1.23;;;1.00;;
11500;SDS011;5807;51.606;7.624;2023-01-08T12:10:00;1.10;;;1.10;;
11500;SDS011;5807;51.606;7.624;2023-01-08T12:12:34;1.50;;;1.40;;
11500;SDS011;5807;51.606;7.624;2023-01-08T12:15:07;4.40;;;1.23;;
11500;SDS011;5807;51.606;7.624;2023-01-08T12:20:29;1.13;;;1.10;;
11500;SDS011;5807;51.606;7.624;2023-01-08T12:22:59;2.30;;;1.30;;
11500;SDS011;5807;51.606;7.624;2023-01-08T12:25:44;1.97;;;1.03;;
11500;SDS011;5807;51.606;7.624;2023-01-08T12:28:19;2.40;;;1.13;;
11500;SDS011;5807;51.606;7.624;2023-01-08T12:30:53;1.30;;;1.20;;
11500;SDS011;5807;51.606;7.624;2023-01-08T12:33:29;3.07;;;1.30;;
11500;SDS011;5807;51.606;7.624;2023-01-08T12:36:01;1.63;;;1.40;;
11500;SDS011;5807;51.606;7.624;2023-01-08T12:38:29;1.53;;;1.20;;
11500;SDS011;5807;51.606;7.624;2023-01-08T12:40:58;1.13;;;1.13;;
11500;SDS011;5807;51.606;7.624;2023-01-08T12:43:28;1.13;;;1.13;;
11500;SDS011;5807;51.606;7.624;2023-01-08T12:45:57;3.03;;;1.10;;
11500;SDS011;5807;51.606;7.624;2023-01-08T12:48:25;1.33;;;1.23;;
11500;SDS011;5807;51.606;7.624;2023-01-08T12:50:58;1.50;;;1.10;;
11500;SDS011;5807;51.606;7.624;2023-01-08T12:53:29;1.03;;;1.03;;
11500;SDS011;5807;51.606;7.624;2023-01-08T12:56:01;1.73;;;1.20;;
11500;SDS011;5807;51.606;7.624;2023-01-08T12:58:36;2.17;;;1.37;;
11500;SDS011;5807;51.606;7.624;2023-01-08T13:01:10;1.33;;;1.03;;
11500;SDS011;5807;51.606;7.624;2023-01-08T13:03:40;0.93;;;0.93;;
11500;SDS011;5807;51.606;7.624;2023-01-08T13:06:08;1.00;;;1.00;;
11500;SDS011;5807;51.606;7.624;2023-01-08T13:08:38;1.20;;;1.13;;
11500;SDS011;5807;51.606;7.624;2023-01-08T13:11:05;2.00;;;1.00;;
11500;SDS011;5807;51.606;7.624;2023-01-08T13:13:35;1.90;;;1.00;;
11500;SDS011;5807;51.606;7.624;2023-01-08T13:16:04;1.10;;;1.10;;
11500;SDS011;5807;51.606;7.624;2023-01-08T13:18:31;0.90;;;0.90;;
11500;SDS011;5807;51.606;7.624;2023-01-08T13:20:59;1.00;;;1.00;;
11500;SDS011;5807;51.606;7.624;2023-01-08T13:23:27;1.40;;;0.80;;
11500;SDS011;5807;51.606;7.624;2023-01-08T13:25:55;0.80;;;0.80;;
11500;SDS011;5807;51.606;7.624;2023-01-08T13:28:26;1.07;;;0.90;;
11500;SDS011;5807;51.606;7.624;2023-01-08T13:31:05;1.10;;;1.10;;
11500;SDS011;5807;51.606;7.624;2023-01-08T13:33:37;1.03;;;1.03;;
11500;SDS011;5807;51.606;7.624;2023-01-08T13:36:11;2.30;;;1.30;;
11500;SDS011;5807;51.606;7.624;2023-01-08T13:38:39;1.00;;;1.00;;
11500;SDS011;5807;51.606;7.624;2023-01-08T13:41:12;1.10;;;1.10;;
11500;SDS011;5807;51.606;7.624;2023-01-08T13:43:49;1.00;;;1.00;;
11500;SDS011;5807;51.606;7.624;2023-01-08T13:46:23;1.03;;;1.03;;
11500;SDS011;5807;51.606;7.624;2023-01-08T13:48:52;1.07;;;0.97;;
11500;SDS011;5807;51.606;7.624;2023-01-08T13:51:25;1.40;;;1.30;;
11500;SDS011;5807;51.606;7.624;2023-01-08T13:53:57;4.23;;;1.40;;
11500;SDS011;5807;51.606;7.624;2023-01-08T13:56:25;1.47;;;1.37;;
11500;SDS011;5807;51.606;7.624;2023-01-08T13:58:52;1.10;;;1.10;;
11500;SDS011;5807;51.606;7.624;2023-01-08T14:01:20;1.60;;;1.47;;
11500;SDS011;5807;51.606;7.624;2023-01-08T14:03:49;1.47;;;1.37;;
11500;SDS011;5807;51.606;7.624;2023-01-08T14:06:17;2.10;;;1.73;;
11500;SDS011;5807;51.606;7.624;2023-01-08T14:08:50;1.37;;;1.23;;
11500;SDS011;5807;51.606;7.624;2023-01-08T14:11:18;1.27;;;1.20;;
11500;SDS011;5807;51.606;7.624;2023-01-08T14:13:45;1.20;;;1.20;;
11500;SDS011;5807;51.606;7.624;2023-01-08T14:16:13;2.10;;;1.50;;
11500;SDS011;5807;51.606;7.624;2023-01-08T14:18:40;1.50;;;1.40;;
11500;SDS011;5807;51.606;7.624;2023-01-08T14:21:09;1.60;;;1.50;;
11500;SDS011;5807;51.606;7.624;2023-01-08T14:23:38;1.50;;;1.40;;
11500;SDS011;5807;51.606;7.624;2023-01-08T14:26:07;1.87;;;1.60;;
11500;SDS011;5807;51.606;7.624;2023-01-08T14:28:34;1.27;;;1.20;;
11500;SDS011;5807;51.606;7.624;2023-01-08T14:31:01;1.20;;;1.20;;
11500;SDS011;5807;51.606;7.624;2023-01-08T14:33:29;1.60;;;1.40;;
11500;SDS011;5807;51.606;7.624;2023-01-08T14:36:01;5.30;;;1.30;;
11500;SDS011;5807;51.606;7.624;2023-01-08T14:38:30;1.10;;;1.10;;
11500;SDS011;5807;51.606;7.624;2023-01-08T14:40:58;1.10;;;1.10;;
11500;SDS011;5807;51.606;7.624;2023-01-08T14:43:26;1.10;;;1.10;;
11500;SDS011;5807;51.606;7.624;2023-01-08T14:45:53;1.50;;;1.40;;
11500;SDS011;5807;51.606;7.624;2023-01-08T14:48:21;1.43;;;1.43;;
11500;SDS011;5807;51.606;7.624;2023-01-08T14:50:58;1.50;;;1.40;;
11500;SDS011;5807;51.606;7.624;2023-01-08T14:53:27;1.30;;;1.30;;
11500;SDS011;5807;51.606;7.624;2023-01-08T14:55:56;1.27;;;1.20;;
11500;SDS011;5807;51.606;7.624;2023-01-08T14:58:24;1.43;;;1.33;;
11500;SDS011;5807;51.606;7.624;2023-01-08T15:00:52;1.37;;;1.30;;
11500;SDS011;5807;51.606;7.624;2023-01-08T15:03:33;1.30;;;1.20;;
11500;SDS011;5807;51.606;7.624;2023-01-08T15:06:00;1.40;;;1.30;;
11500;SDS011;5807;51.606;7.624;2023-01-08T15:08:31;1.50;;;1.40;;
11500;SDS011;5807;51.606;7.624;2023-01-08T15:11:01;1.23;;;1.13;;
11500;SDS011;5807;51.606;7.624;2023-01-08T15:13:32;1.37;;;1.27;;